Time;durP1;ratioP1;P1;durP2;ratioP2;P2;SDS_P1;SDS_P2;PMS_P1;PMS_P2;Temp;Humidity;BMP_temperature;BMP_pressure;BME280_temperature;BME280_humidity;BME280_pressure;Samples;Min_cycle;Max_cycle;Signal;HPM_P1;HPM_P2
2022/09/10 00:01:35;;;;;;;12.33;9.63;;;;;;;15.12;100.00;100917.13;4882392;29;20062;-79
2022/09/10 00:04:11;;;;;;;12.37;8.67;;;;;;;15.08;100.00;100916.28;4897955;29;20415;-79
2022/09/10 00:06:41;;;;;;;11.45;9.13;;;;;;;15.07;100.00;100926.94;4862091;29;20041;-79
2022/09/10 00:09:11;;;;;;;10.05;8.95;;;;;;;15.04;100.00;100919.00;4884284;29;20045;-78
2022/09/10 00:11:40;;;;;;;12.13;10.40;;;;;;;15.03;100.00;100923.44;4842189;29;20047;-79
2022/09/10 00:14:14;;;;;;;12.00;9.55;;;;;;;15.02;100.00;100924.34;4872358;29;20192;-79
2022/09/10 00:16:42;;;;;;;14.20;9.93;;;;;;;15.01;100.00;100914.63;4854326;29;20053;-78
2022/09/10 00:19:12;;;;;;;13.73;9.75;;;;;;;15.00;100.00;100927.00;4892551;29;20056;-77
2022/09/10 00:21:43;;;;;;;13.35;9.27;;;;;;;14.98;100.00;100931.44;4867835;29;20498;-78
2022/09/10 00:24:11;;;;;;;10.52;9.30;;;;;;;14.99;100.00;100927.03;4852040;29;20176;-78
2022/09/10 00:26:41;;;;;;;13.35;10.13;;;;;;;14.97;100.00;100923.50;4839013;29;20032;-78
2022/09/10 00:29:11;;;;;;;16.05;10.18;;;;;;;14.95;100.00;100927.97;4847142;29;20604;-77
2022/09/10 00:31:41;;;;;;;11.13;10.10;;;;;;;14.93;100.00;100930.66;4874630;29;20056;-78
2022/09/10 00:34:11;;;;;;;13.05;10.75;;;;;;;14.92;100.00;100935.97;4872397;29;20694;-78
2022/09/10 00:36:42;;;;;;;11.67;9.73;;;;;;;14.90;100.00;100927.16;4859534;29;20059;-78
2022/09/10 00:39:17;;;;;;;12.02;10.18;;;;;;;14.90;100.00;100928.03;4843370;29;20068;-78
2022/09/10 00:41:47;;;;;;;12.52;10.95;;;;;;;14.89;100.00;100936.88;4837056;29;20528;-78
2022/09/10 00:44:38;;;;;;;14.38;11.75;;;;;;;14.88;100.00;100935.16;4877249;29;20465;-77
2022/09/10 00:47:22;;;;;;;14.80;11.30;;;;;;;14.87;100.00;100932.50;4864466;29;20602;-77
2022/09/10 00:49:56;;;;;;;13.77;11.65;;;;;;;14.86;100.00;100942.25;4871077;29;20039;-77
2022/09/10 00:52:26;;;;;;;17.88;11.45;;;;;;;14.88;100.00;100945.75;4869282;29;20056;-78
2022/09/10 00:54:55;;;;;;;15.40;12.43;;;;;;;14.87;100.00;100943.97;4858689;29;20055;-77
2022/09/10 00:57:26;;;;;;;17.08;11.82;;;;;;;14.87;100.00;100948.41;4828101;29;20498;-79
2022/09/10 01:00:01;;;;;;;17.95;12.35;;;;;;;14.88;100.00;100955.50;4889732;29;20040;-78
2022/09/10 01:02:29;;;;;;;16.20;13.68;;;;;;;14.87;100.00;100943.97;4886947;29;20055;-77
2022/09/10 01:05:05;;;;;;;15.02;12.93;;;;;;;14.87;100.00;100951.06;4876370;29;20271;-77
2022/09/10 01:07:38;;;;;;;21.27;13.45;;;;;;;14.87;100.00;100945.78;4857283;29;20057;-78
2022/09/10 01:10:16;;;;;;;16.40;12.70;;;;;;;14.88;100.00;100950.19;4867723;29;20040;-79
2022/09/10 01:13:11;;;;;;;16.65;14.20;;;;;;;14.88;100.00;100947.53;4844276;29;20037;-78
2022/09/10 01:15:59;;;;;;;16.45;13.82;;;;;;;14.88;100.00;100947.53;4873474;29;20041;-78
2022/09/10 01:18:49;;;;;;;17.42;14.48;;;;;;;14.89;100.00;100947.50;4868964;29;20055;-80
2022/09/10 01:21:50;;;;;;;17.35;13.68;;;;;;;14.88;100.00;100956.38;4890245;29;20059;-80
2022/09/10 01:24:34;;;;;;;;;;;;;;;14.88;100.00;100950.19;4877643;29;20386;-80
2022/09/10 01:27:31;;;;;;;16.70;14.43;;;;;;;14.88;100.00;100958.16;4854032;29;20150;-80
2022/09/10 01:30:21;;;;;;;17.38;15.02;;;;;;;14.87;100.00;100959.91;4848225;29;20426;-80
2022/09/10 01:33:20;;;;;;;19.95;14.88;;;;;;;14.87;100.00;100953.72;4875941;29;20694;-80
2022/09/10 01:35:57;;;;;;;19.83;14.80;;;;;;;14.86;100.00;100958.16;4864445;29;20078;-80
2022/09/10 01:38:37;;;;;;;18.95;14.75;;;;;;;14.86;100.00;100951.97;4878322;29;20044;-80
2022/09/10 01:41:08;;;;;;;22.17;14.45;;;;;;;14.83;100.00;100952.88;4861739;29;20750;-81
2022/09/10 01:43:43;;;;;;;19.25;15.60;;;;;;;14.82;100.00;100953.81;4859998;29;20044;-81
2022/09/10 01:46:12;;;;;;;18.98;16.02;;;;;;;14.81;100.00;100952.03;4862814;29;20052;-81
2022/09/10 01:49:00;;;;;;;20.05;16.38;;;;;;;14.80;100.00;100964.44;4862060;29;20057;-81
2022/09/10 01:51:47;;;;;;;17.83;14.35;;;;;;;14.82;100.00;100948.50;4851418;29;20053;-79
2022/09/10 01:54:44;;;;;;;17.73;14.88;;;;;;;14.83;100.00;100958.19;4862804;29;20045;-81
2022/09/10 01:57:16;;;;;;;22.58;16.02;;;;;;;14.82;100.00;100957.31;4841348;29;20428;-79
2022/09/10 01:59:56;;;;;;;17.35;15.23;;;;;;;14.83;100.00;100950.22;4818315;29;20053;-80
2022/09/10 02:02:40;;;;;;;23.53;16.23;;;;;;;14.84;100.00;100951.09;4818208;29;20049;-79
2022/09/10 02:05:10;;;;;;;18.50;16.35;;;;;;;14.85;100.00;100947.56;4866183;29;20083;-82
2022/09/10 02:07:40;;;;;;;21.50;15.95;;;;;;;14.85;100.00;100960.84;4821702;29;20053;-81
2022/09/10 02:10:11;;;;;;;19.05;15.75;;;;;;;14.86;100.00;100955.50;4844520;29;20233;-80
2022/09/10 02:12:45;;;;;;;23.58;16.42;;;;;;;14.85;100.00;100951.09;4842254;29;20418;-82
2022/09/10 02:15:34;;;;;;;23.15;17.33;;;;;;;14.86;100.00;100962.56;4816801;29;20061;-80
2022/09/10 02:18:11;;;;;;;20.98;18.17;;;;;;;14.85;100.00;100959.06;4824266;29;20056;-81
2022/09/10 02:20:40;;;;;;;22.67;17.17;;;;;;;14.85;100.00;100956.41;4822143;29;20471;-80
2022/09/10 02:23:11;;;;;;;22.83;17.08;;;;;;;14.86;100.00;100965.22;4870414;29;20418;-79
2022/09/10 02:25:39;;;;;;;26.02;18.13;;;;;;;14.85;100.00;100958.19;4874618;29;20044;-80
2022/09/10 02:28:07;;;;;;;19.58;16.40;;;;;;;14.84;100.00;100964.38;4887606;29;20049;-81
2022/09/10 02:30:36;;;;;;;21.05;16.30;;;;;;;14.85;100.00;100956.41;4827436;29;20064;-79
2022/09/10 02:33:05;;;;;;;23.35;18.27;;;;;;;14.86;100.00;100946.66;4869851;29;20052;-80
2022/09/10 02:35:33;;;;;;;23.58;16.52;;;;;;;14.87;100.00;100959.03;4891287;29;20067;-81
2022/09/10 02:38:02;;;;;;;21.42;17.10;;;;;;;14.88;100.00;100951.06;4854865;29;20033;-80
2022/09/10 02:40:30;;;;;;;22.25;18.67;;;;;;;14.87;100.00;100954.59;4873548;29;20160;-80
2022/09/10 02:42:59;;;;;;;22.92;17.63;;;;;;;14.87;100.00;100949.28;4847887;29;20040;-80
2022/09/10 02:45:29;;;;;;;19.50;16.27;;;;;;;14.87;100.00;100959.03;4824784;29;20076;-80
2022/09/10 02:47:59;;;;;;;23.33;18.30;;;;;;;14.86;100.00;100952.88;4865179;29;20521;-79
2022/09/10 02:50:28;;;;;;;18.10;16.20;;;;;;;14.88;100.00;100958.16;4869194;29;20071;-81
2022/09/10 02:52:56;;;;;;;19.30;17.30;;;;;;;14.90;100.00;100959.00;4873526;29;20043;-79
2022/09/10 02:55:26;;;;;;;21.10;17.60;;;;;;;14.91;100.00;100961.63;4879761;29;20583;-79
2022/09/10 02:57:54;;;;;;;20.65;17.92;;;;;;;14.92;100.00;100963.38;4874795;29;20048;-79
2022/09/10 03:00:23;;;;;;;24.08;17.65;;;;;;;14.92;100.00;100968.69;4861879;29;20255;-81
2022/09/10 03:02:51;;;;;;;23.38;19.23;;;;;;;14.92;100.00;100958.06;4862926;29;20040;-81
2022/09/10 03:05:20;;;;;;;23.77;19.63;;;;;;;14.92;100.00;100951.91;4874697;29;20251;-81
2022/09/10 03:07:48;;;;;;;21.30;18.77;;;;;;;14.91;100.00;100950.13;4878269;29;20040;-81
2022/09/10 03:10:17;;;;;;;27.95;21.27;;;;;;;14.90;100.00;100949.25;4872902;29;20874;-80
2022/09/10 03:12:46;;;;;;;25.42;20.30;;;;;;;14.91;100.00;100944.81;4878462;29;20063;-80
2022/09/10 03:15:15;;;;;;;24.58;20.25;;;;;;;14.89;100.00;100949.28;4834434;29;20426;-83
2022/09/10 03:17:44;;;;;;;25.88;20.98;;;;;;;14.90;100.00;100951.03;4861934;29;20040;-80
2022/09/10 03:20:12;;;;;;;24.25;21.08;;;;;;;14.89;100.00;100957.25;4880202;29;20040;-82
2022/09/10 03:22:41;;;;;;;27.55;22.23;;;;;;;14.90;100.00;100954.56;4882315;29;20045;-81
2022/09/10 03:25:14;;;;;;;29.30;22.35;;;;;;;14.90;100.00;100951.03;4844162;29;20044;-81
2022/09/10 03:27:42;;;;;;;25.50;20.65;;;;;;;14.90;100.00;100954.56;4881651;29;20053;-79
2022/09/10 03:30:12;;;;;;;26.05;22.55;;;;;;;14.90;100.00;100953.69;4847360;29;20049;-79
2022/09/10 03:32:41;;;;;;;28.92;20.67;;;;;;;14.91;100.00;100955.44;4858192;29;20044;-80
2022/09/10 03:35:10;;;;;;;31.85;22.38;;;;;;;14.91;100.00;100961.63;4859958;29;20057;-81
2022/09/10 03:37:39;;;;;;;26.88;20.33;;;;;;;14.92;100.00;100962.50;4904859;29;20040;-80
2022/09/10 03:40:08;;;;;;;29.20;22.90;;;;;;;14.90;100.00;100959.88;4855970;29;20043;-80
2022/09/10 03:42:37;;;;;;;26.90;21.23;;;;;;;14.91;100.00;100966.06;4857465;29;20040;-81
2022/09/10 03:45:06;;;;;;;27.63;22.58;;;;;;;14.91;100.00;100964.25;4890746;29;20494;-79
2022/09/10 03:47:39;;;;;;;22.17;19.75;;;;;;;14.93;100.00;100961.59;4841682;29;20052;-79
2022/09/10 03:50:09;;;;;;;30.27;23.27;;;;;;;14.94;100.00;100963.38;4889593;29;20049;-79
2022/09/10 03:52:37;;;;;;;23.77;21.20;;;;;;;14.94;100.00;100958.06;4872553;29;20044;-79
2022/09/10 03:55:06;;;;;;;31.40;23.95;;;;;;;14.94;100.00;100960.72;4873732;29;20048;-80
2022/09/10 03:57:35;;;;;;;30.42;22.15;;;;;;;14.94;100.00;100966.03;4888960;29;20045;-79
2022/09/10 04:00:06;;;;;;;31.20;24.27;;;;;;;14.94;100.00;100976.63;4886026;29;20057;-80
2022/09/10 04:02:42;;;;;;;29.05;22.63;;;;;;;14.94;100.00;100972.19;4848965;29;20060;-80
2022/09/10 04:05:13;;;;;;;34.13;24.90;;;;;;;14.94;100.00;100969.53;4881874;29;20536;-80
2022/09/10 04:07:42;;;;;;;32.25;22.15;;;;;;;14.93;100.00;100975.78;4866479;29;20063;-80
2022/09/10 04:10:12;;;;;;;34.35;25.13;;;;;;;14.94;100.00;100974.00;4886599;29;20174;-81
2022/09/10 04:12:42;;;;;;;28.15;22.23;;;;;;;14.93;100.00;100969.56;4895814;29;20044;-80
2022/09/10 04:15:11;;;;;;;29.77;23.15;;;;;;;14.93;100.00;100970.47;4875422;29;20036;-80
2022/09/10 04:17:40;;;;;;;27.50;22.13;;;;;;;14.95;100.00;100978.38;4840213;29;20059;-81
2022/09/10 04:20:11;;;;;;;36.22;24.38;;;;;;;14.96;100.00;100972.19;4871486;29;20051;-80
2022/09/10 04:22:40;;;;;;;33.65;25.48;;;;;;;14.99;100.00;100977.47;4886265;29;20041;-79
2022/09/10 04:25:08;;;;;;;37.30;26.63;;;;;;;14.98;100.00;100983.66;4873376;29;20051;-80
2022/09/10 04:27:39;;;;;;;35.30;25.38;;;;;;;14.97;100.00;100977.47;4889104;29;20043;-79
2022/09/10 04:30:09;;;;;;;40.50;27.58;;;;;;;14.97;100.00;100982.78;4880201;29;20055;-81
2022/09/10 04:32:38;;;;;;;33.28;25.42;;;;;;;14.98;100.00;100981.00;4869578;29;20068;-80
2022/09/10 04:35:07;;;;;;;45.92;27.02;;;;;;;14.99;100.00;100982.78;4847996;29;20044;-80
2022/09/10 04:37:36;;;;;;;44.88;28.42;;;;;;;14.99;100.00;100988.94;4871907;29;20036;-80
2022/09/10 04:40:05;;;;;;;40.90;28.60;;;;;;;15.01;100.00;100978.31;4866145;29;20064;-80
2022/09/10 04:42:36;;;;;;;42.50;28.55;;;;;;;15.02;100.00;100988.03;4869623;29;20044;-80
2022/09/10 04:45:05;;;;;;;38.15;27.13;;;;;;;15.03;100.00;100989.78;4898746;29;20040;-80
2022/09/10 04:47:35;;;;;;;35.05;26.58;;;;;;;15.03;100.00;100987.13;4880984;29;20032;-80
2022/09/10 04:50:05;;;;;;;39.30;27.90;;;;;;;15.04;100.00;100988.88;4850547;29;20394;-80
2022/09/10 04:52:34;;;;;;;45.67;29.50;;;;;;;15.05;100.00;100992.41;4895783;29;20047;-80
2022/09/10 04:55:04;;;;;;;40.45;27.75;;;;;;;15.05;100.00;100985.34;4878243;29;20040;-80
2022/09/10 04:57:33;;;;;;;42.33;29.20;;;;;;;15.06;100.00;100992.38;4877358;29;20044;-80
2022/09/10 05:00:06;;;;;;;51.65;30.60;;;;;;;15.07;100.00;100994.16;4856447;29;20041;-80
2022/09/10 05:02:37;;;;;;;40.53;27.80;;;;;;;15.07;100.00;100994.16;4889506;29;20056;-80
2022/09/10 05:05:06;;;;;;;43.30;28.42;;;;;;;15.07;100.00;100994.16;4843095;29;20556;-80
2022/09/10 05:07:35;;;;;;;38.60;26.13;;;;;;;15.07;100.00;100994.16;4872309;29;20052;-80
2022/09/10 05:10:04;;;;;;;40.33;27.70;;;;;;;15.08;100.00;101001.19;4879521;29;20048;-80
2022/09/10 05:12:32;;;;;;;35.47;25.70;;;;;;;15.09;100.00;100997.66;4873640;29;20052;-80
2022/09/10 05:15:02;;;;;;;45.75;29.83;;;;;;;15.09;100.00;101002.09;4888663;29;20071;-80
2022/09/10 05:17:32;;;;;;;41.38;29.30;;;;;;;15.09;100.00;101000.31;4875112;29;20172;-80
2022/09/10 05:20:02;;;;;;;41.90;27.48;;;;;;;15.11;100.00;101005.63;4847884;29;20040;-80
2022/09/10 05:22:34;;;;;;;45.92;30.35;;;;;;;15.10;100.00;101007.38;4873403;29;20067;-79
2022/09/10 05:25:08;;;;;;;42.17;28.45;;;;;;;15.10;100.00;101014.47;4879564;29;20510;-80
2022/09/10 05:27:38;;;;;;;45.33;29.55;;;;;;;15.08;100.00;101017.13;4864619;29;20044;-80
2022/09/10 05:30:08;;;;;;;46.47;28.48;;;;;;;15.07;100.00;101018.03;4873726;29;20037;-80
2022/09/10 05:32:38;;;;;;;43.53;28.75;;;;;;;15.08;100.00;101014.47;4893245;29;20064;-80
2022/09/10 05:35:15;;;;;;;46.83;28.05;;;;;;;15.11;100.00;101016.22;4828715;29;20259;-80
2022/09/10 05:37:46;;;;;;;43.83;28.52;;;;;;;15.11;100.00;101013.56;4897235;29;20048;-80
2022/09/10 05:40:15;;;;;;;41.22;27.42;;;;;;;15.12;100.00;101020.63;4876167;29;20659;-79
2022/09/10 05:42:43;;;;;;;45.78;27.67;;;;;;;15.13;100.00;101019.75;4877340;29;20043;-81
2022/09/10 05:45:12;;;;;;;47.63;29.30;;;;;;;15.15;100.00;101017.94;4876112;29;20088;-81
2022/09/10 05:47:46;;;;;;;40.10;27.30;;;;;;;15.15;100.00;101017.94;4869353;29;20064;-80
2022/09/10 05:50:19;;;;;;;44.67;27.85;;;;;;;15.17;100.00;101011.69;4857998;29;20049;-80
2022/09/10 05:52:47;;;;;;;42.53;29.52;;;;;;;15.19;100.00;101025.84;4888266;29;20047;-80
2022/09/10 05:55:16;;;;;;;42.97;29.23;;;;;;;15.21;100.00;101021.38;4895096;29;20422;-80
2022/09/10 05:57:46;;;;;;;46.58;28.58;;;;;;;15.21;100.00;101024.03;4878686;29;20043;-80
2022/09/10 06:00:18;;;;;;;43.25;27.52;;;;;;;15.23;100.00;101024.03;4863235;29;20331;-81
2022/09/10 06:02:56;;;;;;;41.22;27.05;;;;;;;15.24;100.00;101024.91;4861549;29;20048;-81
2022/09/10 06:05:29;;;;;;;43.75;27.95;;;;;;;15.25;100.00;101029.31;4844553;29;20366;-80
2022/09/10 06:07:57;;;;;;;46.05;29.33;;;;;;;15.25;100.00;101024.88;4883909;29;20056;-80
2022/09/10 06:10:26;;;;;;;41.15;28.10;;;;;;;15.26;100.00;101025.78;4880399;29;20040;-80
2022/09/10 06:12:54;;;;;;;44.08;27.95;;;;;;;15.28;100.00;101032.81;4860502;29;20402;-80
2022/09/10 06:15:24;;;;;;;46.03;28.77;;;;;;;15.31;100.00;101029.22;4870355;29;20276;-80
2022/09/10 06:17:55;;;;;;;48.50;28.65;;;;;;;15.31;100.00;101035.44;4884948;29;20047;-80
2022/09/10 06:20:24;;;;;;;45.33;28.27;;;;;;;15.32;100.00;101042.47;4835247;29;20137;-79
2022/09/10 06:22:53;;;;;;;46.72;27.75;;;;;;;15.35;100.00;101042.44;4894938;29;20044;-80
2022/09/10 06:25:22;;;;;;;39.40;24.77;;;;;;;15.36;100.00;101052.16;4889775;29;20266;-80
2022/09/10 06:27:51;;;;;;;39.20;26.85;;;;;;;15.37;100.00;101047.75;4881275;29;20037;-80
2022/09/10 06:30:20;;;;;;;40.28;28.08;;;;;;;15.38;100.00;101057.47;4859426;29;20450;-80
2022/09/10 06:32:49;;;;;;;44.85;27.17;;;;;;;15.39;100.00;101049.47;4877111;29;20056;-80
2022/09/10 06:35:17;;;;;;;34.63;25.35;;;;;;;15.42;100.00;101058.28;4892298;29;20438;-80
2022/09/10 06:37:46;;;;;;;43.15;26.90;;;;;;;15.41;100.00;101062.75;4848219;29;20056;-79
2022/09/10 06:40:17;;;;;;;38.83;25.85;;;;;;;15.41;100.00;101070.69;4856999;29;20048;-81
2022/09/10 06:42:46;;;;;;;34.78;24.50;;;;;;;15.43;100.00;101065.38;4873670;29;20039;-80
2022/09/10 06:45:14;;;;;;;32.83;24.25;;;;;;;15.46;100.00;101065.31;4880483;29;20048;-81
2022/09/10 06:47:51;;;;;;;34.65;25.08;;;;;;;15.49;100.00;101070.59;4851404;29;20037;-82
2022/09/10 06:50:59;;;;;;;36.42;24.33;;;;;;;15.48;100.00;101068.81;4882213;29;20101;-80
2022/09/10 06:53:34;;;;;;;36.78;24.65;;;;;;;15.46;100.00;101068.84;4872694;29;20040;-80
2022/09/10 06:56:07;;;;;;;30.52;24.13;;;;;;;15.49;100.00;101076.78;4890739;29;20502;-80
2022/09/10 06:58:36;;;;;;;32.35;23.58;;;;;;;15.49;100.00;101082.09;4876888;29;20044;-80
2022/09/10 07:01:11;;;;;;;35.30;25.83;;;;;;;15.51;100.00;101080.28;4863375;29;20066;-81
2022/09/10 07:03:44;;;;;;;36.72;24.85;;;;;;;15.53;100.00;101082.94;4881411;29;20040;-80
2022/09/10 07:06:16;;;;;;;35.00;25.48;;;;;;;15.53;100.00;101083.81;4873461;29;20167;-80
2022/09/10 07:08:48;;;;;;;33.60;26.08;;;;;;;15.54;100.00;101088.22;4836336;29;20059;-80
2022/09/10 07:11:17;;;;;;;32.03;24.23;;;;;;;15.57;100.00;101087.28;4864349;29;20071;-81
2022/09/10 07:13:51;;;;;;;32.60;25.17;;;;;;;15.62;100.00;101089.91;4877072;29;20517;-78
2022/09/10 07:16:24;;;;;;;35.50;24.35;;;;;;;15.65;100.00;101098.72;4855459;29;20037;-79
2022/09/10 07:18:56;;;;;;;32.63;22.52;;;;;;;15.68;100.00;101100.44;4894874;29;20055;-80
2022/09/10 07:21:36;;;;;;;33.67;23.55;;;;;;;15.71;100.00;101097.75;4894398;29;20048;-79
2022/09/10 07:24:11;;;;;;;32.95;24.30;;;;;;;15.76;100.00;101095.91;4837714;29;20044;-80
2022/09/10 07:26:42;;;;;;;29.17;21.58;;;;;;;15.78;100.00;101099.44;4883171;29;20040;-80
2022/09/10 07:29:17;;;;;;;28.15;22.45;;;;;;;15.79;100.00;101095.88;4892748;29;20075;-80
2022/09/10 07:31:47;;;;;;;36.70;23.27;;;;;;;15.80;100.00;101102.94;4873827;29;20425;-80
2022/09/10 07:34:21;;;;;;;31.98;21.10;;;;;;;15.82;100.00;101105.59;4869918;29;20044;-80
2022/09/10 07:36:50;;;;;;;30.23;22.30;;;;;;;15.83;100.00;101104.69;4855441;29;20059;-80
2022/09/10 07:39:22;;;;;;;25.27;21.15;;;;;;;15.87;100.00;101095.78;4842638;29;20423;-80
2022/09/10 07:41:54;;;;;;;30.13;22.00;;;;;;;15.90;100.00;101093.94;4850592;29;20533;-80
2022/09/10 07:44:26;;;;;;;24.92;19.98;;;;;;;15.93;100.00;101099.19;4863616;29;20402;-80
2022/09/10 07:46:58;;;;;;;32.08;21.70;;;;;;;15.98;100.00;101104.47;4840998;29;20063;-79
2022/09/10 07:49:26;;;;;;;32.25;22.27;;;;;;;15.99;100.00;101108.84;4846125;29;20064;-79
2022/09/10 07:51:55;;;;;;;26.52;21.25;;;;;;;16.03;100.00;101110.59;4859847;29;20036;-79
2022/09/10 07:54:33;;;;;;;32.20;22.42;;;;;;;16.06;100.00;101112.31;4803006;29;20051;-81
2022/09/10 07:57:03;;;;;;;27.33;20.95;;;;;;;16.08;100.00;101118.50;4887746;29;20048;-80
2022/09/10 07:59:33;;;;;;;25.85;19.42;;;;;;;16.09;100.00;101114.94;4858790;29;20041;-81
2022/09/10 08:02:05;;;;;;;;;;;;;;;16.13;100.00;101119.31;4866319;29;20059;-79
2022/09/10 08:04:36;;;;;;;31.02;20.70;;;;;;;16.18;100.00;101122.75;4868334;29;19938;-79
2022/09/10 08:07:09;;;;;;;30.00;21.00;;;;;;;16.18;100.00;101126.31;4878995;29;20118;-80
2022/09/10 08:09:40;;;;;;;24.00;19.13;;;;;;;16.23;100.00;101126.22;4831301;29;20036;-80
2022/09/10 08:12:12;;;;;;;27.15;18.35;;;;;;;16.29;100.00;101143.88;4898576;29;20516;-80
2022/09/10 08:14:41;;;;;;;30.63;19.48;;;;;;;16.32;100.00;101142.03;4886113;29;20036;-80
2022/09/10 08:17:10;;;;;;;24.98;18.00;;;;;;;16.34;100.00;101150.88;4854616;29;20502;-80
2022/09/10 08:19:43;;;;;;;27.42;18.00;;;;;;;16.38;100.00;101136.59;4872130;29;20048;-80
2022/09/10 08:22:12;;;;;;;23.55;18.63;;;;;;;16.42;100.00;101144.56;4828779;29;20037;-81
2022/09/10 08:24:47;;;;;;;22.88;17.70;;;;;;;16.46;100.00;101141.81;4834083;29;20502;-79
2022/09/10 08:27:19;;;;;;;29.33;19.75;;;;;;;16.52;100.00;101146.13;4874490;29;20267;-81
2022/09/10 08:29:49;;;;;;;26.08;20.17;;;;;;;16.54;100.00;101157.63;4857491;29;20486;-81
2022/09/10 08:32:18;;;;;;;28.42;19.77;;;;;;;16.52;100.00;101151.47;4838389;29;20641;-80
2022/09/10 08:34:47;;;;;;;26.17;18.70;;;;;;;16.54;100.00;101161.19;4864916;29;20375;-80
2022/09/10 08:37:15;;;;;;;26.80;18.42;;;;;;;16.55;100.00;101159.41;4869053;29;20045;-81
2022/09/10 08:39:44;;;;;;;27.85;19.35;;;;;;;16.55;100.00;101162.06;4829842;29;20033;-80
2022/09/10 08:42:21;;;;;;;26.75;19.70;;;;;;;16.54;100.00;101176.25;4870730;29;20056;-80
2022/09/10 08:45:05;;;;;;;26.52;18.92;;;;;;;16.50;100.00;101174.56;4872862;29;20041;-81
2022/09/10 08:47:50;;;;;;;28.25;18.00;;;;;;;16.48;100.00;101179.94;4870732;29;20526;-81
2022/09/10 08:50:27;;;;;;;24.75;18.63;;;;;;;16.45;100.00;101177.31;4877466;29;20057;-79
2022/09/10 08:53:21;;;;;;;26.42;18.08;;;;;;;16.45;100.00;101187.06;4859178;29;20040;-80
2022/09/10 08:55:56;;;;;;;22.90;18.23;;;;;;;16.47;100.00;101187.91;4851543;29;20057;-81
2022/09/10 08:58:42;;;;;;;29.55;18.95;;;;;;;16.48;100.00;101195.88;4881880;29;20041;-80
2022/09/10 09:01:19;;;;;;;29.17;17.85;;;;;;;16.47;100.00;101194.13;4863121;29;20041;-80
2022/09/10 09:03:47;;;;;;;24.52;17.70;;;;;;;16.48;100.00;101200.31;4864256;29;20036;-82
2022/09/10 09:06:30;;;;;;;21.15;15.90;;;;;;;16.47;100.00;101198.56;4862922;29;20819;-78
2022/09/10 09:09:00;;;;;;;23.63;16.55;;;;;;;16.47;100.00;101199.44;4859963;29;20041;-80
2022/09/10 09:11:53;;;;;;;24.17;16.42;;;;;;;16.50;100.00;101202.06;4840825;29;20395;-79
2022/09/10 09:14:44;;;;;;;24.60;17.23;;;;;;;16.53;100.00;101198.47;4870307;29;20048;-79
2022/09/10 09:17:58;;;;;;;26.73;18.55;;;;;;;16.53;100.00;101207.31;4872603;29;20148;-79
2022/09/10 09:20:48;;;;;;;28.00;17.65;;;;;;;16.54;100.00;101203.75;4819136;29;20050;-79
2022/09/10 09:23:25;;;;;;;20.77;16.30;;;;;;;16.60;100.00;101216.09;4808228;29;20062;-79
2022/09/10 09:26:12;;;;;;;20.75;15.90;;;;;;;16.64;100.00;101209.81;4849805;29;20059;-80
2022/09/10 09:29:04;;;;;;;21.05;16.02;;;;;;;16.69;100.00;101210.63;4867417;29;20047;-80
2022/09/10 09:31:39;;;;;;;20.23;15.10;;;;;;;16.75;100.00;101210.50;4875670;29;20059;-80
2022/09/10 09:34:38;;;;;;;20.30;15.73;;;;;;;16.81;100.00;101213.97;4876891;29;20044;-79
2022/09/10 09:37:18;;;;;;;18.52;15.30;;;;;;;16.83;100.00;101221.06;4862643;29;20059;-79
2022/09/10 09:40:12;;;;;;;21.80;14.75;;;;;;;16.83;100.00;101218.41;4879670;29;20036;-79
2022/09/10 09:43:14;;;;;;;18.90;15.35;;;;;;;16.85;100.00;101223.69;4818574;29;20041;-80
2022/09/10 09:45:44;;;;;;;21.38;14.10;;;;;;;16.88;100.00;101220.97;4871223;29;20056;-79
2022/09/10 09:48:17;;;;;;;17.58;13.70;;;;;;;16.91;100.00;101228.91;4870086;29;20528;-79
2022/09/10 09:50:54;;;;;;;15.90;11.80;;;;;;;16.95;100.00;101226.16;4869923;29;20149;-79
2022/09/10 09:53:25;;;;;;;10.60;8.40;;;;;;;16.99;100.00;101224.31;4889376;29;20048;-79
2022/09/10 09:56:03;;;;;;;10.73;9.38;;;;;;;17.01;100.00;101233.16;4868508;29;20056;-80
2022/09/10 09:58:36;;;;;;;12.77;10.55;;;;;;;17.05;100.00;101234.88;4870475;29;20045;-81
2022/09/10 10:01:08;;;;;;;12.43;9.13;;;;;;;17.08;100.00;101229.50;4857510;29;20049;-77
2022/09/10 10:04:02;;;;;;;13.98;11.50;;;;;;;17.16;100.00;101240.00;4889064;29;20052;-78
2022/09/10 10:06:45;;;;;;;13.50;9.93;;;;;;;17.24;100.00;101237.19;4877439;29;20040;-78
2022/09/10 10:09:20;;;;;;;12.60;11.00;;;;;;;17.30;100.00;101237.97;4884400;29;20056;-79
2022/09/10 10:11:54;;;;;;;12.75;10.70;;;;;;;17.32;100.00;101240.63;4866128;29;20426;-77
2022/09/10 10:14:34;;;;;;;14.65;10.50;;;;;;;17.33;100.00;101250.34;4879679;29;20056;-77
2022/09/10 10:17:21;;;;;;;12.57;10.27;;;;;;;17.36;100.00;101237.00;4873848;29;20037;-78
2022/09/10 10:20:08;;;;;;;12.02;9.90;;;;;;;17.40;100.00;101245.81;4873791;29;20656;-78
2022/09/10 10:22:41;;;;;;;13.60;9.70;;;;;;;17.39;100.00;101231.63;4875719;29;20049;-79
2022/09/10 10:25:40;;;;;;;11.88;10.38;;;;;;;17.44;100.00;101235.03;4856125;29;20064;-79
2022/09/10 10:28:22;;;;;;;17.13;12.35;;;;;;;17.49;100.00;101235.84;4885363;29;20051;-78
2022/09/10 10:30:58;;;;;;;16.92;12.15;;;;;;;17.52;100.00;101240.22;4856623;29;20044;-78
2022/09/10 10:33:30;;;;;;;15.32;12.23;;;;;;;17.54;100.00;101249.06;4883442;29;20051;-78
2022/09/10 10:36:07;;;;;;;14.48;11.30;;;;;;;17.56;100.00;101249.94;4834986;29;20063;-79
2022/09/10 10:38:44;;;;;;;18.60;13.13;;;;;;;17.53;100.00;101242.88;4865388;29;20059;-78
2022/09/10 10:41:34;;;;;;;17.45;12.07;;;;;;;17.56;100.00;101251.69;4859590;29;20045;-78
2022/09/10 10:44:03;;;;;;;17.33;11.85;;;;;;;17.60;100.00;101248.97;4883494;29;20060;-79
2022/09/10 10:46:39;;;;;;;16.35;12.65;;;;;;;17.62;100.00;101243.63;4860903;29;20414;-79
2022/09/10 10:49:36;;;;;;;15.60;12.30;;;;;;;17.66;100.00;101246.19;4887479;29;20059;-78
2022/09/10 10:52:18;;;;;;;13.35;10.63;;;;;;;17.68;100.00;101239.03;4877674;29;20538;-79
2022/09/10 10:54:46;;;;;;;13.35;10.52;;;;;;;17.75;100.00;101245.13;4877748;29;20146;-80
2022/09/10 10:57:37;;;;;;;15.90;13.57;;;;;;;17.82;100.00;101245.84;4868143;29;20052;-80
2022/09/10 11:00:13;;;;;;;16.15;12.48;;;;;;;17.86;100.00;101236.91;4858455;29;20041;-79
2022/09/10 11:03:01;;;;;;;17.73;11.52;;;;;;;17.92;100.00;101236.81;4848026;29;20072;-80
2022/09/10 11:05:40;;;;;;;16.02;11.82;;;;;;;17.98;100.00;101235.81;4855776;29;20064;-80
2022/09/10 11:08:31;;;;;;;14.23;11.80;;;;;;;18.10;100.00;101231.06;4854840;29;20049;-80
2022/09/10 11:11:04;;;;;;;;;;;;;;;18.24;100.00;101236.09;4882936;29;20059;-78
2022/09/10 11:13:42;;;;;;;16.55;12.30;;;;;;;18.28;100.00;101232.44;4858379;29;19931;-79
2022/09/10 11:16:18;;;;;;;15.57;11.60;;;;;;;18.35;100.00;101227.84;4877574;29;20048;-79
2022/09/10 11:18:58;;;;;;;13.15;10.93;;;;;;;18.56;100.00;101213.09;4861460;29;20517;-79
2022/09/10 11:21:39;;;;;;;18.70;11.45;;;;;;;18.78;100.00;101218.81;4866566;29;20060;-80
2022/09/10 11:24:14;;;;;;;12.27;10.38;;;;;;;18.89;100.00;101216.78;4846765;29;20417;-79
2022/09/10 11:26:56;;;;;;;13.95;9.77;;;;;;;19.01;100.00;101209.38;4860023;29;20259;-78
2022/09/10 11:29:59;;;;;;;14.93;11.00;;;;;;;19.14;100.00;101209.94;4879089;29;20045;-77
2022/09/10 11:32:57;;;;;;;11.55;10.35;;;;;;;19.14;100.00;101212.59;4841052;29;20060;-80
2022/09/10 11:36:10;;;;;;;12.80;9.98;;;;;;;19.15;100.00;101215.22;4851834;29;20403;-78